sensor_id;sensor_type;location;lat;lon;timestamp;P1;durP1;ratioP1;P2;durP2;ratioP2
56399;SDS011;42298;53.638;9.876;2023-07-24T00:02:03;9.07;;;4.35;;
56399;SDS011;42298;53.638;9.876;2023-07-24T00:04:32;7.05;;;4.35;;
56399;SDS011;42298;53.638;9.876;2023-07-24T00:06:57;9.90;;;4.40;;
56399;SDS011;42298;53.638;9.876;2023-07-24T00:09:23;8.48;;;4.03;;
56399;SDS011;42298;53.638;9.876;2023-07-24T00:11:48;9.48;;;4.55;;
56399;SDS011;42298;53.638;9.876;2023-07-24T00:14:15;7.43;;;4.15;;
56399;SDS011;42298;53.638;9.876;2023-07-24T00:16:42;7.07;;;4.03;;
56399;SDS011;42298;53.638;9.876;2023-07-24T00:19:07;8.52;;;4.43;;
56399;SDS011;42298;53.638;9.876;2023-07-24T00:21:33;8.20;;;4.38;;
56399;SDS011;42298;53.638;9.876;2023-07-24T00:23:58;7.50;;;4.15;;
56399;SDS011;42298;53.638;9.876;2023-07-24T00:26:23;8.68;;;4.43;;
56399;SDS011;42298;53.638;9.876;2023-07-24T00:28:49;9.13;;;4.25;;
56399;SDS011;42298;53.638;9.876;2023-07-24T00:31:14;8.05;;;3.90;;
56399;SDS011;42298;53.638;9.876;2023-07-24T00:33:39;6.65;;;4.10;;
56399;SDS011;42298;53.638;9.876;2023-07-24T00:36:05;6.43;;;4.38;;
56399;SDS011;42298;53.638;9.876;2023-07-24T00:38:30;7.95;;;4.13;;
56399;SDS011;42298;53.638;9.876;2023-07-24T00:40:55;5.75;;;4.05;;
56399;SDS011;42298;53.638;9.876;2023-07-24T00:43:22;7.32;;;4.32;;
56399;SDS011;42298;53.638;9.876;2023-07-24T00:45:47;8.38;;;4.55;;
56399;SDS011;42298;53.638;9.876;2023-07-24T00:48:13;7.82;;;4.53;;
56399;SDS011;42298;53.638;9.876;2023-07-24T00:50:42;8.32;;;4.95;;
56399;SDS011;42298;53.638;9.876;2023-07-24T00:53:10;7.13;;;4.45;;
56399;SDS011;42298;53.638;9.876;2023-07-24T00:55:39;7.38;;;4.22;;
56399;SDS011;42298;53.638;9.876;2023-07-24T00:58:05;8.40;;;4.35;;
56399;SDS011;42298;53.638;9.876;2023-07-24T01:00:31;7.07;;;4.18;;
56399;SDS011;42298;53.638;9.876;2023-07-24T01:02:57;7.88;;;4.18;;
56399;SDS011;42298;53.638;9.876;2023-07-24T01:05:24;8.10;;;4.55;;
56399;SDS011;42298;53.638;9.876;2023-07-24T01:07:52;10.07;;;4.65;;
56399;SDS011;42298;53.638;9.876;2023-07-24T01:10:17;9.90;;;4.28;;
56399;SDS011;42298;53.638;9.876;2023-07-24T01:12:51;8.15;;;4.88;;
56399;SDS011;42298;53.638;9.876;2023-07-24T01:15:31;9.13;;;5.10;;
56399;SDS011;42298;53.638;9.876;2023-07-24T01:18:00;9.55;;;5.88;;
56399;SDS011;42298;53.638;9.876;2023-07-24T01:20:31;11.35;;;5.82;;
56399;SDS011;42298;53.638;9.876;2023-07-24T01:25:53;11.35;;;6.05;;
56399;SDS011;42298;53.638;9.876;2023-07-24T01:28:20;10.27;;;6.50;;
56399;SDS011;42298;53.638;9.876;2023-07-24T01:30:46;9.48;;;6.00;;
56399;SDS011;42298;53.638;9.876;2023-07-24T01:33:11;11.52;;;6.45;;
56399;SDS011;42298;53.638;9.876;2023-07-24T01:35:36;9.27;;;6.50;;
56399;SDS011;42298;53.638;9.876;2023-07-24T01:38:04;11.40;;;6.82;;
56399;SDS011;42298;53.638;9.876;2023-07-24T01:40:29;9.82;;;6.07;;
56399;SDS011;42298;53.638;9.876;2023-07-24T01:42:56;10.73;;;6.32;;
56399;SDS011;42298;53.638;9.876;2023-07-24T01:45:24;9.20;;;6.40;;
56399;SDS011;42298;53.638;9.876;2023-07-24T01:47:51;10.55;;;6.43;;
56399;SDS011;42298;53.638;9.876;2023-07-24T01:50:16;10.93;;;6.40;;
56399;SDS011;42298;53.638;9.876;2023-07-24T01:52:42;11.57;;;6.43;;
56399;SDS011;42298;53.638;9.876;2023-07-24T01:55:09;8.65;;;5.80;;
56399;SDS011;42298;53.638;9.876;2023-07-24T01:57:34;10.02;;;5.72;;
56399;SDS011;42298;53.638;9.876;2023-07-24T02:00:00;10.25;;;5.95;;
56399;SDS011;42298;53.638;9.876;2023-07-24T02:02:27;9.27;;;5.78;;
56399;SDS011;42298;53.638;9.876;2023-07-24T02:04:52;7.35;;;4.53;;
56399;SDS011;42298;53.638;9.876;2023-07-24T02:07:17;9.30;;;5.82;;
56399;SDS011;42298;53.638;9.876;2023-07-24T02:09:43;8.00;;;5.20;;
56399;SDS011;42298;53.638;9.876;2023-07-24T02:12:08;7.70;;;5.00;;
56399;SDS011;42298;53.638;9.876;2023-07-24T02:14:34;9.00;;;5.30;;
56399;SDS011;42298;53.638;9.876;2023-07-24T02:17:00;7.65;;;4.75;;
56399;SDS011;42298;53.638;9.876;2023-07-24T02:19:31;9.55;;;5.55;;
56399;SDS011;42298;53.638;9.876;2023-07-24T02:21:56;8.80;;;5.47;;
56399;SDS011;42298;53.638;9.876;2023-07-24T02:24:22;10.15;;;5.65;;
56399;SDS011;42298;53.638;9.876;2023-07-24T02:26:47;8.75;;;5.65;;
56399;SDS011;42298;53.638;9.876;2023-07-24T02:29:12;11.15;;;6.25;;
56399;SDS011;42298;53.638;9.876;2023-07-24T02:31:37;9.98;;;6.88;;
56399;SDS011;42298;53.638;9.876;2023-07-24T02:34:03;10.27;;;6.13;;
56399;SDS011;42298;53.638;9.876;2023-07-24T02:36:28;10.27;;;6.22;;
56399;SDS011;42298;53.638;9.876;2023-07-24T02:38:53;10.75;;;7.22;;
56399;SDS011;42298;53.638;9.876;2023-07-24T02:41:19;9.98;;;6.85;;
56399;SDS011;42298;53.638;9.876;2023-07-24T02:43:44;11.00;;;6.90;;
56399;SDS011;42298;53.638;9.876;2023-07-24T02:46:09;12.05;;;7.45;;
56399;SDS011;42298;53.638;9.876;2023-07-24T02:48:37;11.93;;;8.13;;
56399;SDS011;42298;53.638;9.876;2023-07-24T02:51:02;10.73;;;7.28;;
56399;SDS011;42298;53.638;9.876;2023-07-24T02:53:36;10.70;;;7.50;;
56399;SDS011;42298;53.638;9.876;2023-07-24T02:56:02;10.95;;;7.95;;
56399;SDS011;42298;53.638;9.876;2023-07-24T02:58:27;11.27;;;8.10;;
56399;SDS011;42298;53.638;9.876;2023-07-24T03:01:03;11.60;;;8.68;;
56399;SDS011;42298;53.638;9.876;2023-07-24T03:03:29;11.52;;;7.35;;
56399;SDS011;42298;53.638;9.876;2023-07-24T03:05:55;11.02;;;7.80;;
56399;SDS011;42298;53.638;9.876;2023-07-24T03:08:20;12.00;;;7.40;;
56399;SDS011;42298;53.638;9.876;2023-07-24T03:10:48;12.00;;;8.20;;
56399;SDS011;42298;53.638;9.876;2023-07-24T03:13:14;11.52;;;6.75;;
56399;SDS011;42298;53.638;9.876;2023-07-24T03:15:39;10.90;;;7.53;;
56399;SDS011;42298;53.638;9.876;2023-07-24T03:18:04;12.45;;;7.30;;
56399;SDS011;42298;53.638;9.876;2023-07-24T03:20:30;13.02;;;7.13;;
56399;SDS011;42298;53.638;9.876;2023-07-24T03:22:55;10.45;;;6.35;;
56399;SDS011;42298;53.638;9.876;2023-07-24T03:25:20;10.02;;;6.53;;
56399;SDS011;42298;53.638;9.876;2023-07-24T03:27:46;10.23;;;5.65;;
56399;SDS011;42298;53.638;9.876;2023-07-24T03:30:13;10.60;;;6.32;;
56399;SDS011;42298;53.638;9.876;2023-07-24T03:32:39;9.25;;;6.00;;
56399;SDS011;42298;53.638;9.876;2023-07-24T03:35:05;9.85;;;5.88;;
56399;SDS011;42298;53.638;9.876;2023-07-24T03:37:31;9.25;;;6.13;;
56399;SDS011;42298;53.638;9.876;2023-07-24T03:39:59;11.90;;;6.45;;
56399;SDS011;42298;53.638;9.876;2023-07-24T03:42:31;10.25;;;5.70;;
56399;SDS011;42298;53.638;9.876;2023-07-24T03:44:56;10.30;;;6.18;;
56399;SDS011;42298;53.638;9.876;2023-07-24T03:47:23;9.82;;;6.10;;
56399;SDS011;42298;53.638;9.876;2023-07-24T03:49:49;10.27;;;6.13;;
56399;SDS011;42298;53.638;9.876;2023-07-24T03:52:15;10.93;;;6.07;;
56399;SDS011;42298;53.638;9.876;2023-07-24T03:54:40;12.85;;;6.38;;
56399;SDS011;42298;53.638;9.876;2023-07-24T03:57:06;9.93;;;5.63;;
56399;SDS011;42298;53.638;9.876;2023-07-24T03:59:31;11.15;;;5.93;;
56399;SDS011;42298;53.638;9.876;2023-07-24T04:01:57;10.50;;;6.40;;
56399;SDS011;42298;53.638;9.876;2023-07-24T04:04:23;7.78;;;5.07;;
56399;SDS011;42298;53.638;9.876;2023-07-24T04:06:48;10.90;;;5.85;;
56399;SDS011;42298;53.638;9.876;2023-07-24T04:09:15;9.32;;;6.30;;
56399;SDS011;42298;53.638;9.876;2023-07-24T04:11:41;11.43;;;6.47;;
56399;SDS011;42298;53.638;9.876;2023-07-24T04:14:07;8.75;;;5.97;;
56399;SDS011;42298;53.638;9.876;2023-07-24T04:16:32;9.52;;;6.15;;
56399;SDS011;42298;53.638;9.876;2023-07-24T04:18:58;9.85;;;6.05;;
56399;SDS011;42298;53.638;9.876;2023-07-24T04:21:26;10.18;;;6.20;;
56399;SDS011;42298;53.638;9.876;2023-07-24T04:23:51;11.30;;;6.90;;
56399;SDS011;42298;53.638;9.876;2023-07-24T04:26:16;11.48;;;6.00;;
56399;SDS011;42298;53.638;9.876;2023-07-24T04:28:42;10.60;;;6.22;;
56399;SDS011;42298;53.638;9.876;2023-07-24T04:31:07;11.73;;;6.30;;
56399;SDS011;42298;53.638;9.876;2023-07-24T04:33:32;11.50;;;6.30;;
56399;SDS011;42298;53.638;9.876;2023-07-24T04:35:58;10.60;;;5.50;;
56399;SDS011;42298;53.638;9.876;2023-07-24T04:38:26;10.32;;;6.38;;
56399;SDS011;42298;53.638;9.876;2023-07-24T04:40:51;9.90;;;6.35;;
56399;SDS011;42298;53.638;9.876;2023-07-24T04:43:16;8.93;;;5.43;;
56399;SDS011;42298;53.638;9.876;2023-07-24T04:45:44;11.10;;;6.43;;
56399;SDS011;42298;53.638;9.876;2023-07-24T04:48:12;11.32;;;6.25;;
56399;SDS011;42298;53.638;9.876;2023-07-24T04:50:37;8.70;;;5.50;;
56399;SDS011;42298;53.638;9.876;2023-07-24T04:53:03;10.15;;;5.80;;
56399;SDS011;42298;53.638;9.876;2023-07-24T04:55:28;9.65;;;6.05;;
56399;SDS011;42298;53.638;9.876;2023-07-24T04:57:55;10.95;;;5.75;;
56399;SDS011;42298;53.638;9.876;2023-07-24T05:00:20;10.90;;;6.43;;
56399;SDS011;42298;53.638;9.876;2023-07-24T05:02:45;9.88;;;6.68;;
56399;SDS011;42298;53.638;9.876;2023-07-24T05:05:11;11.73;;;6.45;;
56399;SDS011;42298;53.638;9.876;2023-07-24T05:07:36;11.88;;;6.28;;
56399;SDS011;42298;53.638;9.876;2023-07-24T05:10:03;9.93;;;6.15;;
56399;SDS011;42298;53.638;9.876;2023-07-24T05:12:34;11.05;;;5.85;;
56399;SDS011;42298;53.638;9.876;2023-07-24T05:15:00;8.98;;;5.72;;
56399;SDS011;42298;53.638;9.876;2023-07-24T05:17:25;9.75;;;5.70;;
56399;SDS011;42298;53.638;9.876;2023-07-24T05:19:52;10.93;;;6.05;;
56399;SDS011;42298;53.638;9.876;2023-07-24T05:22:17;12.05;;;6.13;;
56399;SDS011;42298;53.638;9.876;2023-07-24T05:24:42;10.50;;;6.07;;
56399;SDS011;42298;53.638;9.876;2023-07-24T05:27:10;10.85;;;6.35;;
56399;SDS011;42298;53.638;9.876;2023-07-24T05:29:37;10.05;;;6.25;;
56399;SDS011;42298;53.638;9.876;2023-07-24T05:32:05;11.47;;;6.60;;
56399;SDS011;42298;53.638;9.876;2023-07-24T05:34:30;10.18;;;5.70;;
56399;SDS011;42298;53.638;9.876;2023-07-24T05:36:56;10.50;;;6.50;;
56399;SDS011;42298;53.638;9.876;2023-07-24T05:39:21;10.43;;;6.07;;
56399;SDS011;42298;53.638;9.876;2023-07-24T05:41:47;10.82;;;6.55;;
56399;SDS011;42298;53.638;9.876;2023-07-24T05:44:13;11.50;;;6.35;;
56399;SDS011;42298;53.638;9.876;2023-07-24T05:46:38;10.15;;;6.68;;
56399;SDS011;42298;53.638;9.876;2023-07-24T05:49:03;11.15;;;5.95;;
56399;SDS011;42298;53.638;9.876;2023-07-24T05:51:29;10.02;;;5.35;;
56399;SDS011;42298;53.638;9.876;2023-07-24T05:53:54;10.15;;;6.53;;
56399;SDS011;42298;53.638;9.876;2023-07-24T05:56:19;10.65;;;6.40;;
56399;SDS011;42298;53.638;9.876;2023-07-24T05:58:48;10.65;;;6.50;;
56399;SDS011;42298;53.638;9.876;2023-07-24T06:01:14;10.30;;;5.85;;
56399;SDS011;42298;53.638;9.876;2023-07-24T06:03:39;9.60;;;5.90;;
56399;SDS011;42298;53.638;9.876;2023-07-24T06:06:04;10.63;;;6.35;;
56399;SDS011;42298;53.638;9.876;2023-07-24T06:08:30;10.65;;;6.07;;
56399;SDS011;42298;53.638;9.876;2023-07-24T06:10:55;9.68;;;5.90;;
56399;SDS011;42298;53.638;9.876;2023-07-24T06:13:20;9.77;;;6.03;;
56399;SDS011;42298;53.638;9.876;2023-07-24T06:15:49;9.82;;;5.82;;
56399;SDS011;42298;53.638;9.876;2023-07-24T06:18:15;9.82;;;5.93;;
56399;SDS011;42298;53.638;9.876;2023-07-24T06:20:40;10.98;;;6.28;;
56399;SDS011;42298;53.638;9.876;2023-07-24T06:23:06;9.25;;;5.80;;
56399;SDS011;42298;53.638;9.876;2023-07-24T06:25:31;10.82;;;6.28;;
56399;SDS011;42298;53.638;9.876;2023-07-24T06:27:57;10.02;;;5.70;;
56399;SDS011;42298;53.638;9.876;2023-07-24T06:30:30;10.13;;;6.57;;
56399;SDS011;42298;53.638;9.876;2023-07-24T06:32:56;10.90;;;6.15;;
56399;SDS011;42298;53.638;9.876;2023-07-24T06:35:21;10.85;;;6.35;;
56399;SDS011;42298;53.638;9.876;2023-07-24T06:37:47;9.68;;;5.97;;
56399;SDS011;42298;53.638;9.876;2023-07-24T06:40:12;10.48;;;6.57;;
56399;SDS011;42298;53.638;9.876;2023-07-24T06:42:38;10.10;;;6.00;;
56399;SDS011;42298;53.638;9.876;2023-07-24T06:45:03;10.13;;;6.38;;
56399;SDS011;42298;53.638;9.876;2023-07-24T06:47:29;12.13;;;6.82;;
56399;SDS011;42298;53.638;9.876;2023-07-24T06:49:54;10.25;;;6.57;;
56399;SDS011;42298;53.638;9.876;2023-07-24T06:52:19;11.15;;;7.03;;
56399;SDS011;42298;53.638;9.876;2023-07-24T06:54:44;10.23;;;6.50;;
56399;SDS011;42298;53.638;9.876;2023-07-24T06:57:10;9.60;;;6.20;;
56399;SDS011;42298;53.638;9.876;2023-07-24T06:59:35;10.85;;;6.80;;
56399;SDS011;42298;53.638;9.876;2023-07-24T07:02:00;10.80;;;6.95;;
56399;SDS011;42298;53.638;9.876;2023-07-24T07:04:26;9.68;;;6.50;;
56399;SDS011;42298;53.638;9.876;2023-07-24T07:06:51;11.55;;;7.30;;
56399;SDS011;42298;53.638;9.876;2023-07-24T07:09:16;10.25;;;6.43;;
56399;SDS011;42298;53.638;9.876;2023-07-24T07:11:42;10.98;;;6.13;;
56399;SDS011;42298;53.638;9.876;2023-07-24T07:14:10;9.35;;;6.00;;
56399;SDS011;42298;53.638;9.876;2023-07-24T07:16:35;10.50;;;6.30;;
56399;SDS011;42298;53.638;9.876;2023-07-24T07:19:04;10.55;;;6.07;;
56399;SDS011;42298;53.638;9.876;2023-07-24T07:21:29;8.15;;;5.70;;
56399;SDS011;42298;53.638;9.876;2023-07-24T07:23:54;8.55;;;6.10;;
56399;SDS011;42298;53.638;9.876;2023-07-24T07:26:20;10.25;;;6.38;;
56399;SDS011;42298;53.638;9.876;2023-07-24T07:28:45;10.02;;;5.80;;
56399;SDS011;42298;53.638;9.876;2023-07-24T07:31:11;9.38;;;6.00;;
56399;SDS011;42298;53.638;9.876;2023-07-24T07:33:36;9.23;;;5.80;;
56399;SDS011;42298;53.638;9.876;2023-07-24T07:36:01;11.45;;;6.65;;
56399;SDS011;42298;53.638;9.876;2023-07-24T07:38:28;9.68;;;6.57;;
56399;SDS011;42298;53.638;9.876;2023-07-24T07:40:53;10.70;;;6.25;;
56399;SDS011;42298;53.638;9.876;2023-07-24T07:43:19;11.18;;;6.05;;
56399;SDS011;42298;53.638;9.876;2023-07-24T07:45:44;11.93;;;6.85;;
56399;SDS011;42298;53.638;9.876;2023-07-24T07:48:11;10.18;;;6.50;;
56399;SDS011;42298;53.638;9.876;2023-07-24T07:50:36;10.30;;;6.28;;
56399;SDS011;42298;53.638;9.876;2023-07-24T07:53:01;9.13;;;6.38;;
56399;SDS011;42298;53.638;9.876;2023-07-24T07:55:27;10.68;;;6.22;;
56399;SDS011;42298;53.638;9.876;2023-07-24T07:57:52;11.82;;;6.72;;
56399;SDS011;42298;53.638;9.876;2023-07-24T08:00:18;11.32;;;6.53;;
56399;SDS011;42298;53.638;9.876;2023-07-24T08:02:43;11.27;;;6.60;;
56399;SDS011;42298;53.638;9.876;2023-07-24T08:05:09;10.98;;;7.00;;
56399;SDS011;42298;53.638;9.876;2023-07-24T08:07:35;10.50;;;6.63;;
56399;SDS011;42298;53.638;9.876;2023-07-24T08:10:01;9.40;;;5.88;;
56399;SDS011;42298;53.638;9.876;2023-07-24T08:12:27;10.60;;;6.30;;
56399;SDS011;42298;53.638;9.876;2023-07-24T08:14:52;11.90;;;7.18;;
56399;SDS011;42298;53.638;9.876;2023-07-24T08:17:17;9.07;;;6.53;;
56399;SDS011;42298;53.638;9.876;2023-07-24T08:19:42;9.85;;;6.47;;
56399;SDS011;42298;53.638;9.876;2023-07-24T08:22:08;10.35;;;6.63;;
56399;SDS011;42298;53.638;9.876;2023-07-24T08:24:34;9.90;;;6.32;;
56399;SDS011;42298;53.638;9.876;2023-07-24T08:27:00;11.07;;;6.28;;
56399;SDS011;42298;53.638;9.876;2023-07-24T08:29:25;9.90;;;6.47;;
56399;SDS011;42298;53.638;9.876;2023-07-24T08:31:50;11.85;;;7.43;;
56399;SDS011;42298;53.638;9.876;2023-07-24T08:34:15;10.85;;;6.80;;
56399;SDS011;42298;53.638;9.876;2023-07-24T08:36:41;10.07;;;6.20;;
56399;SDS011;42298;53.638;9.876;2023-07-24T08:39:06;9.75;;;6.30;;
56399;SDS011;42298;53.638;9.876;2023-07-24T08:41:31;10.07;;;7.05;;
56399;SDS011;42298;53.638;9.876;2023-07-24T08:43:59;10.00;;;6.82;;
56399;SDS011;42298;53.638;9.876;2023-07-24T08:46:25;10.82;;;6.35;;
56399;SDS011;42298;53.638;9.876;2023-07-24T08:48:50;10.45;;;6.68;;
56399;SDS011;42298;53.638;9.876;2023-07-24T08:51:17;12.55;;;6.43;;
56399;SDS011;42298;53.638;9.876;2023-07-24T08:53:47;12.20;;;7.13;;
56399;SDS011;42298;53.638;9.876;2023-07-24T08:56:13;11.50;;;7.18;;
56399;SDS011;42298;53.638;9.876;2023-07-24T08:58:39;11.82;;;6.57;;
56399;SDS011;42298;53.638;9.876;2023-07-24T09:01:05;10.40;;;6.25;;
56399;SDS011;42298;53.638;9.876;2023-07-24T09:03:30;9.75;;;6.03;;
56399;SDS011;42298;53.638;9.876;2023-07-24T09:05:57;11.15;;;6.25;;
56399;SDS011;42298;53.638;9.876;2023-07-24T09:08:32;10.68;;;6.10;;
56399;SDS011;42298;53.638;9.876;2023-07-24T09:11:05;10.85;;;6.55;;
56399;SDS011;42298;53.638;9.876;2023-07-24T09:13:31;9.75;;;6.45;;
56399;SDS011;42298;53.638;9.876;2023-07-24T09:15:57;9.93;;;6.00;;
56399;SDS011;42298;53.638;9.876;2023-07-24T09:18:24;10.77;;;5.90;;
56399;SDS011;42298;53.638;9.876;2023-07-24T09:20:50;9.23;;;6.03;;
56399;SDS011;42298;53.638;9.876;2023-07-24T09:23:15;8.57;;;5.68;;
56399;SDS011;42298;53.638;9.876;2023-07-24T09:25:50;9.40;;;5.80;;
56399;SDS011;42298;53.638;9.876;2023-07-24T09:28:16;9.70;;;5.78;;
56399;SDS011;42298;53.638;9.876;2023-07-24T09:30:42;10.48;;;5.93;;
56399;SDS011;42298;53.638;9.876;2023-07-24T09:33:17;8.90;;;5.53;;
56399;SDS011;42298;53.638;9.876;2023-07-24T09:35:42;8.13;;;5.43;;
56399;SDS011;42298;53.638;9.876;2023-07-24T09:38:08;10.52;;;6.00;;
56399;SDS011;42298;53.638;9.876;2023-07-24T09:40:37;9.98;;;5.88;;
56399;SDS011;42298;53.638;9.876;2023-07-24T09:43:41;9.52;;;6.07;;
56399;SDS011;42298;53.638;9.876;2023-07-24T09:46:00;10.45;;;6.35;;
56399;SDS011;42298;53.638;9.876;2023-07-24T09:48:27;8.65;;;5.70;;
56399;SDS011;42298;53.638;9.876;2023-07-24T09:50:54;8.57;;;5.22;;
56399;SDS011;42298;53.638;9.876;2023-07-24T09:53:22;8.40;;;5.50;;
56399;SDS011;42298;53.638;9.876;2023-07-24T09:55:57;9.52;;;5.53;;
56399;SDS011;42298;53.638;9.876;2023-07-24T09:58:24;10.05;;;5.60;;
56399;SDS011;42298;53.638;9.876;2023-07-24T10:00:51;9.43;;;5.95;;
56399;SDS011;42298;53.638;9.876;2023-07-24T10:03:20;10.25;;;6.35;;
56399;SDS011;42298;53.638;9.876;2023-07-24T10:05:47;8.50;;;5.43;;
56399;SDS011;42298;53.638;9.876;2023-07-24T10:08:14;9.98;;;5.07;;
56399;SDS011;42298;53.638;9.876;2023-07-24T10:10:41;8.23;;;4.65;;
56399;SDS011;42298;53.638;9.876;2023-07-24T10:13:06;8.52;;;5.65;;
56399;SDS011;42298;53.638;9.876;2023-07-24T10:15:35;8.27;;;5.35;;
56399;SDS011;42298;53.638;9.876;2023-07-24T10:18:05;9.60;;;5.35;;
56399;SDS011;42298;53.638;9.876;2023-07-24T10:20:35;8.73;;;5.60;;
56399;SDS011;42298;53.638;9.876;2023-07-24T10:23:05;8.07;;;4.80;;
56399;SDS011;42298;53.638;9.876;2023-07-24T10:25:33;8.95;;;5.25;;
56399;SDS011;42298;53.638;9.876;2023-07-24T10:30:41;8.13;;;5.20;;
56399;SDS011;42298;53.638;9.876;2023-07-24T10:33:08;8.52;;;5.20;;
56399;SDS011;42298;53.638;9.876;2023-07-24T10:38:03;8.90;;;5.25;;
56399;SDS011;42298;53.638;9.876;2023-07-24T10:40:28;8.98;;;5.00;;
56399;SDS011;42298;53.638;9.876;2023-07-24T10:43:01;9.10;;;5.50;;
56399;SDS011;42298;53.638;9.876;2023-07-24T10:45:46;7.63;;;4.90;;
56399;SDS011;42298;53.638;9.876;2023-07-24T10:48:19;10.10;;;5.60;;
56399;SDS011;42298;53.638;9.876;2023-07-24T10:50:46;10.45;;;5.97;;
56399;SDS011;42298;53.638;9.876;2023-07-24T10:53:14;10.32;;;5.70;;
56399;SDS011;42298;53.638;9.876;2023-07-24T10:55:45;10.60;;;5.75;;
56399;SDS011;42298;53.638;9.876;2023-07-24T10:58:12;10.20;;;6.07;;
56399;SDS011;42298;53.638;9.876;2023-07-24T11:00:39;9.45;;;5.35;;
56399;SDS011;42298;53.638;9.876;2023-07-24T11:03:07;9.57;;;5.43;;
56399;SDS011;42298;53.638;9.876;2023-07-24T11:05:35;9.48;;;5.43;;
56399;SDS011;42298;53.638;9.876;2023-07-24T11:08:14;11.00;;;6.32;;
56399;SDS011;42298;53.638;9.876;2023-07-24T11:13:16;9.75;;;5.18;;
56399;SDS011;42298;53.638;9.876;2023-07-24T11:15:42;9.88;;;5.18;;
56399;SDS011;42298;53.638;9.876;2023-07-24T11:18:08;9.40;;;5.47;;
56399;SDS011;42298;53.638;9.876;2023-07-24T11:20:37;7.97;;;4.50;;
56399;SDS011;42298;53.638;9.876;2023-07-24T11:23:08;7.80;;;4.75;;
56399;SDS011;42298;53.638;9.876;2023-07-24T11:25:33;9.68;;;5.05;;
56399;SDS011;42298;53.638;9.876;2023-07-24T11:27:59;8.32;;;4.95;;
56399;SDS011;42298;53.638;9.876;2023-07-24T11:30:24;7.85;;;4.78;;
56399;SDS011;42298;53.638;9.876;2023-07-24T11:32:50;9.45;;;4.95;;
56399;SDS011;42298;53.638;9.876;2023-07-24T11:35:16;9.48;;;5.57;;
56399;SDS011;42298;53.638;9.876;2023-07-24T11:37:42;10.40;;;5.63;;
56399;SDS011;42298;53.638;9.876;2023-07-24T11:40:10;10.20;;;5.20;;
56399;SDS011;42298;53.638;9.876;2023-07-24T11:42:39;8.82;;;4.80;;
56399;SDS011;42298;53.638;9.876;2023-07-24T11:45:07;8.18;;;5.00;;
56399;SDS011;42298;53.638;9.876;2023-07-24T11:47:44;9.55;;;5.53;;
56399;SDS011;42298;53.638;9.876;2023-07-24T11:50:13;8.50;;;4.82;;
56399;SDS011;42298;53.638;9.876;2023-07-24T11:55:15;15.15;;;8.15;;
56399;SDS011;42298;53.638;9.876;2023-07-24T11:57:55;11.88;;;6.70;;
56399;SDS011;42298;53.638;9.876;2023-07-24T12:00:23;13.77;;;7.93;;
56399;SDS011;42298;53.638;9.876;2023-07-24T12:02:49;10.60;;;5.78;;
56399;SDS011;42298;53.638;9.876;2023-07-24T12:05:15;7.80;;;5.10;;
56399;SDS011;42298;53.638;9.876;2023-07-24T12:07:42;9.07;;;5.03;;
56399;SDS011;42298;53.638;9.876;2023-07-24T12:10:12;9.05;;;4.68;;
56399;SDS011;42298;53.638;9.876;2023-07-24T12:12:45;6.97;;;4.20;;
56399;SDS011;42298;53.638;9.876;2023-07-24T12:15:12;7.20;;;4.47;;
56399;SDS011;42298;53.638;9.876;2023-07-24T12:17:39;8.50;;;5.00;;
56399;SDS011;42298;53.638;9.876;2023-07-24T12:20:06;7.88;;;4.65;;
56399;SDS011;42298;53.638;9.876;2023-07-24T12:22:36;7.70;;;4.80;;
56399;SDS011;42298;53.638;9.876;2023-07-24T12:25:03;7.45;;;4.32;;
56399;SDS011;42298;53.638;9.876;2023-07-24T12:27:30;6.93;;;4.40;;
56399;SDS011;42298;53.638;9.876;2023-07-24T12:29:56;9.63;;;4.00;;
56399;SDS011;42298;53.638;9.876;2023-07-24T12:32:22;6.25;;;4.00;;
56399;SDS011;42298;53.638;9.876;2023-07-24T12:34:48;6.25;;;3.67;;
56399;SDS011;42298;53.638;9.876;2023-07-24T12:37:16;8.27;;;4.10;;
56399;SDS011;42298;53.638;9.876;2023-07-24T12:39:46;6.57;;;4.00;;
56399;SDS011;42298;53.638;9.876;2023-07-24T12:42:13;6.97;;;4.50;;
56399;SDS011;42298;53.638;9.876;2023-07-24T12:44:40;5.75;;;3.90;;
56399;SDS011;42298;53.638;9.876;2023-07-24T12:47:06;7.35;;;4.05;;
56399;SDS011;42298;53.638;9.876;2023-07-24T12:49:32;6.68;;;4.00;;
56399;SDS011;42298;53.638;9.876;2023-07-24T12:51:57;7.82;;;4.35;;
56399;SDS011;42298;53.638;9.876;2023-07-24T12:54:22;6.35;;;4.30;;
56399;SDS011;42298;53.638;9.876;2023-07-24T12:56:48;8.38;;;4.30;;
56399;SDS011;42298;53.638;9.876;2023-07-24T12:59:14;6.68;;;4.22;;
56399;SDS011;42298;53.638;9.876;2023-07-24T13:01:40;6.50;;;4.50;;
56399;SDS011;42298;53.638;9.876;2023-07-24T13:04:07;8.02;;;4.65;;
56399;SDS011;42298;53.638;9.876;2023-07-24T13:06:33;6.78;;;4.30;;
56399;SDS011;42298;53.638;9.876;2023-07-24T13:08:58;6.43;;;4.38;;
56399;SDS011;42298;53.638;9.876;2023-07-24T13:11:24;6.07;;;4.03;;
56399;SDS011;42298;53.638;9.876;2023-07-24T13:13:49;7.85;;;4.20;;
56399;SDS011;42298;53.638;9.876;2023-07-24T13:16:15;5.82;;;4.05;;
56399;SDS011;42298;53.638;9.876;2023-07-24T13:18:41;9.07;;;4.40;;
56399;SDS011;42298;53.638;9.876;2023-07-24T13:21:06;6.60;;;4.32;;
56399;SDS011;42298;53.638;9.876;2023-07-24T13:23:32;6.25;;;3.97;;
56399;SDS011;42298;53.638;9.876;2023-07-24T13:25:58;6.72;;;4.20;;
56399;SDS011;42298;53.638;9.876;2023-07-24T13:28:23;5.70;;;3.50;;
56399;SDS011;42298;53.638;9.876;2023-07-24T13:30:49;7.50;;;3.95;;
56399;SDS011;42298;53.638;9.876;2023-07-24T13:33:14;5.57;;;3.90;;
56399;SDS011;42298;53.638;9.876;2023-07-24T13:35:39;6.90;;;3.95;;
56399;SDS011;42298;53.638;9.876;2023-07-24T13:38:05;7.78;;;4.07;;
56399;SDS011;42298;53.638;9.876;2023-07-24T13:40:34;6.82;;;3.92;;
56399;SDS011;42298;53.638;9.876;2023-07-24T13:43:00;6.25;;;3.90;;
56399;SDS011;42298;53.638;9.876;2023-07-24T13:45:25;6.90;;;3.67;;
56399;SDS011;42298;53.638;9.876;2023-07-24T13:47:50;5.97;;;4.07;;
56399;SDS011;42298;53.638;9.876;2023-07-24T13:50:16;5.47;;;4.07;;
56399;SDS011;42298;53.638;9.876;2023-07-24T13:52:41;7.07;;;4.50;;
56399;SDS011;42298;53.638;9.876;2023-07-24T13:55:06;7.25;;;3.88;;
56399;SDS011;42298;53.638;9.876;2023-07-24T13:57:32;6.00;;;3.80;;
56399;SDS011;42298;53.638;9.876;2023-07-24T13:59:57;7.93;;;4.25;;
56399;SDS011;42298;53.638;9.876;2023-07-24T14:02:23;7.33;;;4.10;;
56399;SDS011;42298;53.638;9.876;2023-07-24T14:04:48;7.28;;;4.45;;
56399;SDS011;42298;53.638;9.876;2023-07-24T14:07:13;7.28;;;4.15;;
56399;SDS011;42298;53.638;9.876;2023-07-24T14:09:39;7.00;;;4.43;;
56399;SDS011;42298;53.638;9.876;2023-07-24T14:12:04;6.55;;;4.22;;
56399;SDS011;42298;53.638;9.876;2023-07-24T14:14:30;6.80;;;4.22;;
56399;SDS011;42298;53.638;9.876;2023-07-24T14:16:56;6.97;;;4.20;;
56399;SDS011;42298;53.638;9.876;2023-07-24T14:19:23;7.18;;;4.47;;
56399;SDS011;42298;53.638;9.876;2023-07-24T14:21:49;6.65;;;4.38;;
56399;SDS011;42298;53.638;9.876;2023-07-24T14:24:15;7.07;;;4.35;;
56399;SDS011;42298;53.638;9.876;2023-07-24T14:26:40;9.30;;;4.50;;
56399;SDS011;42298;53.638;9.876;2023-07-24T14:29:06;7.03;;;4.65;;
56399;SDS011;42298;53.638;9.876;2023-07-24T14:31:31;6.53;;;4.40;;
56399;SDS011;42298;53.638;9.876;2023-07-24T14:33:57;7.00;;;4.78;;
56399;SDS011;42298;53.638;9.876;2023-07-24T14:36:22;7.32;;;4.30;;
56399;SDS011;42298;53.638;9.876;2023-07-24T14:38:49;6.45;;;4.20;;
56399;SDS011;42298;53.638;9.876;2023-07-24T14:41:16;7.82;;;4.55;;
56399;SDS011;42298;53.638;9.876;2023-07-24T14:43:41;6.93;;;4.57;;
56399;SDS011;42298;53.638;9.876;2023-07-24T14:46:06;9.40;;;4.80;;
56399;SDS011;42298;53.638;9.876;2023-07-24T14:48:32;11.40;;;5.68;;
56399;SDS011;42298;53.638;9.876;2023-07-24T14:50:57;9.40;;;4.95;;
56399;SDS011;42298;53.638;9.876;2023-07-24T14:53:22;10.20;;;5.43;;